sensor_id;sensor_type;location;lat;lon;timestamp;P1;durP1;ratioP1;P2;durP2;ratioP2
3841;SDS011;1936;47.074;15.336;2022-08-19T00:00:43;6.47;;;4.57;;
3841;SDS011;1936;47.074;15.336;2022-08-19T00:02:46;15.07;;;5.97;;
3841;SDS011;1936;47.074;15.336;2022-08-19T00:04:52;17.00;;;6.00;;
3841;SDS011;1936;47.074;15.336;2022-08-19T00:06:57;12.73;;;4.10;;
3841;SDS011;1936;47.074;15.336;2022-08-19T00:09:02;11.17;;;5.40;;
3841;SDS011;1936;47.074;15.336;2022-08-19T00:11:07;7.57;;;4.80;;
3841;SDS011;1936;47.074;15.336;2022-08-19T00:13:19;8.53;;;4.20;;
3841;SDS011;1936;47.074;15.336;2022-08-19T00:15:23;13.60;;;5.33;;
3841;SDS011;1936;47.074;15.336;2022-08-19T00:17:27;7.40;;;4.63;;
3841;SDS011;1936;47.074;15.336;2022-08-19T00:19:31;9.50;;;4.47;;
3841;SDS011;1936;47.074;15.336;2022-08-19T00:21:36;9.60;;;4.90;;
3841;SDS011;1936;47.074;15.336;2022-08-19T00:23:43;10.13;;;5.30;;
3841;SDS011;1936;47.074;15.336;2022-08-19T00:25:47;11.20;;;4.70;;
3841;SDS011;1936;47.074;15.336;2022-08-19T00:27:52;12.90;;;5.90;;
3841;SDS011;1936;47.074;15.336;2022-08-19T00:29:57;9.80;;;4.70;;
3841;SDS011;1936;47.074;15.336;2022-08-19T00:32:04;11.90;;;4.30;;
3841;SDS011;1936;47.074;15.336;2022-08-19T00:34:11;10.77;;;5.10;;
3841;SDS011;1936;47.074;15.336;2022-08-19T00:36:17;18.43;;;5.77;;
3841;SDS011;1936;47.074;15.336;2022-08-19T00:38:22;10.30;;;5.23;;
3841;SDS011;1936;47.074;15.336;2022-08-19T00:40:40;11.40;;;4.90;;
3841;SDS011;1936;47.074;15.336;2022-08-19T00:42:47;10.60;;;5.87;;
3841;SDS011;1936;47.074;15.336;2022-08-19T00:44:55;8.77;;;5.10;;
3841;SDS011;1936;47.074;15.336;2022-08-19T00:46:59;12.20;;;4.93;;
3841;SDS011;1936;47.074;15.336;2022-08-19T00:49:12;11.13;;;6.57;;
3841;SDS011;1936;47.074;15.336;2022-08-19T00:51:18;13.73;;;6.20;;
3841;SDS011;1936;47.074;15.336;2022-08-19T00:53:23;11.20;;;5.70;;
3841;SDS011;1936;47.074;15.336;2022-08-19T00:55:29;9.03;;;5.53;;
3841;SDS011;1936;47.074;15.336;2022-08-19T00:57:37;15.50;;;6.20;;
3841;SDS011;1936;47.074;15.336;2022-08-19T00:59:46;15.60;;;6.40;;
3841;SDS011;1936;47.074;15.336;2022-08-19T01:02:02;10.47;;;5.50;;
3841;SDS011;1936;47.074;15.336;2022-08-19T01:04:07;14.63;;;6.43;;
3841;SDS011;1936;47.074;15.336;2022-08-19T01:06:13;17.10;;;5.83;;
3841;SDS011;1936;47.074;15.336;2022-08-19T01:08:22;9.17;;;5.70;;
3841;SDS011;1936;47.074;15.336;2022-08-19T01:10:28;13.77;;;6.60;;
3841;SDS011;1936;47.074;15.336;2022-08-19T01:12:39;11.07;;;6.57;;
3841;SDS011;1936;47.074;15.336;2022-08-19T01:14:43;11.63;;;5.93;;
3841;SDS011;1936;47.074;15.336;2022-08-19T01:16:48;16.20;;;6.20;;
3841;SDS011;1936;47.074;15.336;2022-08-19T01:18:55;11.83;;;6.70;;
3841;SDS011;1936;47.074;15.336;2022-08-19T01:21:00;15.40;;;5.70;;
3841;SDS011;1936;47.074;15.336;2022-08-19T01:23:10;10.23;;;6.00;;
3841;SDS011;1936;47.074;15.336;2022-08-19T01:25:18;11.10;;;5.53;;
3841;SDS011;1936;47.074;15.336;2022-08-19T01:27:26;13.03;;;5.57;;
3841;SDS011;1936;47.074;15.336;2022-08-19T01:29:44;17.43;;;6.23;;
3841;SDS011;1936;47.074;15.336;2022-08-19T01:31:50;13.80;;;6.10;;
3841;SDS011;1936;47.074;15.336;2022-08-19T01:33:55;10.97;;;5.80;;
3841;SDS011;1936;47.074;15.336;2022-08-19T01:36:03;7.13;;;5.03;;
3841;SDS011;1936;47.074;15.336;2022-08-19T01:38:19;14.03;;;5.50;;
3841;SDS011;1936;47.074;15.336;2022-08-19T01:40:28;18.23;;;7.30;;
3841;SDS011;1936;47.074;15.336;2022-08-19T01:42:33;9.00;;;5.07;;
3841;SDS011;1936;47.074;15.336;2022-08-19T01:44:37;10.60;;;5.50;;
3841;SDS011;1936;47.074;15.336;2022-08-19T01:46:42;15.37;;;6.17;;
3841;SDS011;1936;47.074;15.336;2022-08-19T01:48:46;11.50;;;6.17;;
3841;SDS011;1936;47.074;15.336;2022-08-19T01:50:51;10.10;;;5.50;;
3841;SDS011;1936;47.074;15.336;2022-08-19T01:52:55;13.97;;;5.30;;
3841;SDS011;1936;47.074;15.336;2022-08-19T01:55:10;8.67;;;5.47;;
3841;SDS011;1936;47.074;15.336;2022-08-19T01:57:16;8.17;;;5.13;;
3841;SDS011;1936;47.074;15.336;2022-08-19T01:59:22;8.67;;;5.37;;
3841;SDS011;1936;47.074;15.336;2022-08-19T02:01:26;15.10;;;5.90;;
3841;SDS011;1936;47.074;15.336;2022-08-19T02:03:33;14.23;;;6.60;;
3841;SDS011;1936;47.074;15.336;2022-08-19T02:05:38;12.70;;;5.40;;
3841;SDS011;1936;47.074;15.336;2022-08-19T02:07:43;12.03;;;5.43;;
3841;SDS011;1936;47.074;15.336;2022-08-19T02:09:47;8.43;;;4.57;;
3841;SDS011;1936;47.074;15.336;2022-08-19T02:11:53;12.17;;;5.20;;
3841;SDS011;1936;47.074;15.336;2022-08-19T02:13:58;8.93;;;6.60;;
3841;SDS011;1936;47.074;15.336;2022-08-19T02:16:03;12.00;;;5.30;;
3841;SDS011;1936;47.074;15.336;2022-08-19T02:18:07;12.43;;;6.00;;
3841;SDS011;1936;47.074;15.336;2022-08-19T02:20:14;15.60;;;7.30;;
3841;SDS011;1936;47.074;15.336;2022-08-19T02:22:19;12.90;;;5.67;;
3841;SDS011;1936;47.074;15.336;2022-08-19T02:24:23;9.60;;;6.50;;
3841;SDS011;1936;47.074;15.336;2022-08-19T02:26:26;11.00;;;6.00;;
3841;SDS011;1936;47.074;15.336;2022-08-19T02:28:33;15.53;;;5.30;;
3841;SDS011;1936;47.074;15.336;2022-08-19T02:30:37;13.23;;;6.50;;
3841;SDS011;1936;47.074;15.336;2022-08-19T02:32:43;11.47;;;5.83;;
3841;SDS011;1936;47.074;15.336;2022-08-19T02:34:47;11.63;;;5.77;;
3841;SDS011;1936;47.074;15.336;2022-08-19T02:36:51;10.00;;;6.47;;
3841;SDS011;1936;47.074;15.336;2022-08-19T02:38:55;9.80;;;6.53;;
3841;SDS011;1936;47.074;15.336;2022-08-19T02:41:00;11.70;;;6.67;;
3841;SDS011;1936;47.074;15.336;2022-08-19T02:43:08;10.83;;;5.77;;
3841;SDS011;1936;47.074;15.336;2022-08-19T02:45:15;9.40;;;6.00;;
3841;SDS011;1936;47.074;15.336;2022-08-19T02:47:19;11.23;;;6.47;;
3841;SDS011;1936;47.074;15.336;2022-08-19T02:49:25;12.93;;;6.83;;
3841;SDS011;1936;47.074;15.336;2022-08-19T02:51:29;14.57;;;6.37;;
3841;SDS011;1936;47.074;15.336;2022-08-19T02:53:37;10.87;;;6.20;;
3841;SDS011;1936;47.074;15.336;2022-08-19T02:55:45;13.17;;;7.37;;
3841;SDS011;1936;47.074;15.336;2022-08-19T02:57:49;10.60;;;6.43;;
3841;SDS011;1936;47.074;15.336;2022-08-19T02:59:53;11.17;;;6.73;;
3841;SDS011;1936;47.074;15.336;2022-08-19T03:01:59;17.73;;;7.60;;
3841;SDS011;1936;47.074;15.336;2022-08-19T03:04:07;14.27;;;7.97;;
3841;SDS011;1936;47.074;15.336;2022-08-19T03:06:15;15.13;;;6.80;;
3841;SDS011;1936;47.074;15.336;2022-08-19T03:08:19;11.73;;;7.33;;
3841;SDS011;1936;47.074;15.336;2022-08-19T03:10:25;12.17;;;6.90;;
3841;SDS011;1936;47.074;15.336;2022-08-19T03:12:29;10.63;;;8.13;;
3841;SDS011;1936;47.074;15.336;2022-08-19T03:14:33;15.07;;;7.80;;
3841;SDS011;1936;47.074;15.336;2022-08-19T03:16:40;12.00;;;7.47;;
3841;SDS011;1936;47.074;15.336;2022-08-19T03:18:50;15.20;;;6.60;;
3841;SDS011;1936;47.074;15.336;2022-08-19T03:21:14;11.37;;;7.20;;
3841;SDS011;1936;47.074;15.336;2022-08-19T03:23:18;13.20;;;7.20;;
3841;SDS011;1936;47.074;15.336;2022-08-19T03:25:23;11.97;;;6.90;;
3841;SDS011;1936;47.074;15.336;2022-08-19T03:27:28;9.20;;;6.13;;
3841;SDS011;1936;47.074;15.336;2022-08-19T03:29:36;8.40;;;7.20;;
3841;SDS011;1936;47.074;15.336;2022-08-19T03:31:44;13.80;;;7.43;;
3841;SDS011;1936;47.074;15.336;2022-08-19T03:33:54;15.13;;;6.70;;
3841;SDS011;1936;47.074;15.336;2022-08-19T03:36:02;17.57;;;7.73;;
3841;SDS011;1936;47.074;15.336;2022-08-19T03:38:08;17.43;;;7.80;;
3841;SDS011;1936;47.074;15.336;2022-08-19T03:40:12;25.27;;;7.00;;
3841;SDS011;1936;47.074;15.336;2022-08-19T03:42:16;16.30;;;8.40;;
3841;SDS011;1936;47.074;15.336;2022-08-19T03:44:40;13.50;;;7.03;;
3841;SDS011;1936;47.074;15.336;2022-08-19T03:46:48;13.33;;;7.37;;
3841;SDS011;1936;47.074;15.336;2022-08-19T03:48:56;10.30;;;6.33;;
3841;SDS011;1936;47.074;15.336;2022-08-19T03:51:04;9.93;;;6.17;;
3841;SDS011;1936;47.074;15.336;2022-08-19T03:53:07;9.23;;;6.73;;
3841;SDS011;1936;47.074;15.336;2022-08-19T03:55:13;15.37;;;6.80;;
3841;SDS011;1936;47.074;15.336;2022-08-19T03:57:17;10.87;;;7.00;;
3841;SDS011;1936;47.074;15.336;2022-08-19T03:59:26;9.83;;;6.33;;
3841;SDS011;1936;47.074;15.336;2022-08-19T04:01:32;11.73;;;5.53;;
3841;SDS011;1936;47.074;15.336;2022-08-19T04:03:36;9.60;;;6.13;;
3841;SDS011;1936;47.074;15.336;2022-08-19T04:05:42;11.30;;;4.97;;
3841;SDS011;1936;47.074;15.336;2022-08-19T04:07:46;8.23;;;4.80;;
3841;SDS011;1936;47.074;15.336;2022-08-19T04:09:50;8.83;;;4.53;;
3841;SDS011;1936;47.074;15.336;2022-08-19T04:11:55;10.33;;;3.67;;
3841;SDS011;1936;47.074;15.336;2022-08-19T04:14:00;6.97;;;2.93;;
3841;SDS011;1936;47.074;15.336;2022-08-19T04:16:06;7.93;;;2.73;;
3841;SDS011;1936;47.074;15.336;2022-08-19T04:18:13;8.03;;;3.30;;
3841;SDS011;1936;47.074;15.336;2022-08-19T04:20:17;4.93;;;2.10;;
3841;SDS011;1936;47.074;15.336;2022-08-19T04:22:22;4.67;;;2.70;;
3841;SDS011;1936;47.074;15.336;2022-08-19T04:24:29;3.97;;;2.10;;
3841;SDS011;1936;47.074;15.336;2022-08-19T04:26:35;2.90;;;1.97;;
3841;SDS011;1936;47.074;15.336;2022-08-19T04:28:40;3.37;;;2.30;;
3841;SDS011;1936;47.074;15.336;2022-08-19T04:30:47;4.57;;;1.83;;
3841;SDS011;1936;47.074;15.336;2022-08-19T04:32:56;3.50;;;2.30;;
3841;SDS011;1936;47.074;15.336;2022-08-19T04:34:59;2.27;;;1.70;;
3841;SDS011;1936;47.074;15.336;2022-08-19T04:37:18;3.30;;;1.80;;
3841;SDS011;1936;47.074;15.336;2022-08-19T04:39:25;3.97;;;1.53;;
3841;SDS011;1936;47.074;15.336;2022-08-19T04:41:45;4.93;;;2.27;;
3841;SDS011;1936;47.074;15.336;2022-08-19T04:44:06;4.07;;;2.10;;
3841;SDS011;1936;47.074;15.336;2022-08-19T04:46:11;6.33;;;2.40;;
3841;SDS011;1936;47.074;15.336;2022-08-19T04:48:35;7.27;;;2.47;;
3841;SDS011;1936;47.074;15.336;2022-08-19T04:50:49;3.30;;;1.97;;
3841;SDS011;1936;47.074;15.336;2022-08-19T04:52:58;3.90;;;2.67;;
3841;SDS011;1936;47.074;15.336;2022-08-19T04:55:10;7.17;;;3.27;;
3841;SDS011;1936;47.074;15.336;2022-08-19T04:57:17;5.30;;;2.57;;
3841;SDS011;1936;47.074;15.336;2022-08-19T04:59:20;14.57;;;2.70;;
3841;SDS011;1936;47.074;15.336;2022-08-19T05:01:27;10.43;;;3.13;;
3841;SDS011;1936;47.074;15.336;2022-08-19T05:03:34;5.43;;;2.80;;
3841;SDS011;1936;47.074;15.336;2022-08-19T05:05:38;8.40;;;3.07;;
3841;SDS011;1936;47.074;15.336;2022-08-19T05:07:45;8.43;;;4.43;;
3841;SDS011;1936;47.074;15.336;2022-08-19T05:09:49;5.30;;;2.87;;
3841;SDS011;1936;47.074;15.336;2022-08-19T05:12:01;8.60;;;3.50;;
3841;SDS011;1936;47.074;15.336;2022-08-19T05:14:07;9.87;;;4.33;;
3841;SDS011;1936;47.074;15.336;2022-08-19T05:16:14;11.80;;;5.40;;
3841;SDS011;1936;47.074;15.336;2022-08-19T05:18:19;12.03;;;5.80;;
3841;SDS011;1936;47.074;15.336;2022-08-19T05:20:40;14.00;;;6.17;;
3841;SDS011;1936;47.074;15.336;2022-08-19T05:23:01;14.70;;;5.20;;
3841;SDS011;1936;47.074;15.336;2022-08-19T05:25:22;18.53;;;5.83;;
3841;SDS011;1936;47.074;15.336;2022-08-19T05:27:29;9.10;;;5.10;;
3841;SDS011;1936;47.074;15.336;2022-08-19T05:29:33;9.80;;;4.90;;
3841;SDS011;1936;47.074;15.336;2022-08-19T05:31:38;17.73;;;5.83;;
3841;SDS011;1936;47.074;15.336;2022-08-19T05:33:44;9.60;;;4.73;;
3841;SDS011;1936;47.074;15.336;2022-08-19T05:35:48;13.33;;;5.30;;
3841;SDS011;1936;47.074;15.336;2022-08-19T05:37:52;8.77;;;4.57;;
3841;SDS011;1936;47.074;15.336;2022-08-19T05:39:59;8.13;;;4.80;;
3841;SDS011;1936;47.074;15.336;2022-08-19T05:42:07;7.80;;;4.90;;
3841;SDS011;1936;47.074;15.336;2022-08-19T05:44:14;14.40;;;5.67;;
3841;SDS011;1936;47.074;15.336;2022-08-19T05:46:19;10.33;;;5.60;;
3841;SDS011;1936;47.074;15.336;2022-08-19T05:48:28;8.27;;;5.30;;
3841;SDS011;1936;47.074;15.336;2022-08-19T05:50:35;6.60;;;4.40;;
3841;SDS011;1936;47.074;15.336;2022-08-19T05:52:38;13.13;;;4.50;;
3841;SDS011;1936;47.074;15.336;2022-08-19T05:54:46;8.87;;;3.87;;
3841;SDS011;1936;47.074;15.336;2022-08-19T05:56:52;15.73;;;4.70;;
3841;SDS011;1936;47.074;15.336;2022-08-19T05:58:57;11.37;;;3.77;;
3841;SDS011;1936;47.074;15.336;2022-08-19T06:01:03;5.80;;;3.77;;
3841;SDS011;1936;47.074;15.336;2022-08-19T06:03:12;8.60;;;4.63;;
3841;SDS011;1936;47.074;15.336;2022-08-19T06:05:16;7.93;;;4.10;;
3841;SDS011;1936;47.074;15.336;2022-08-19T06:07:19;11.10;;;3.77;;
3841;SDS011;1936;47.074;15.336;2022-08-19T06:09:23;9.70;;;4.17;;
3841;SDS011;1936;47.074;15.336;2022-08-19T06:11:32;8.53;;;4.13;;
3841;SDS011;1936;47.074;15.336;2022-08-19T06:13:38;8.83;;;3.90;;
3841;SDS011;1936;47.074;15.336;2022-08-19T06:15:42;5.00;;;3.87;;
3841;SDS011;1936;47.074;15.336;2022-08-19T06:17:49;7.63;;;5.00;;
3841;SDS011;1936;47.074;15.336;2022-08-19T06:19:55;15.90;;;4.80;;
3841;SDS011;1936;47.074;15.336;2022-08-19T06:22:02;5.37;;;4.00;;
3841;SDS011;1936;47.074;15.336;2022-08-19T06:24:07;7.57;;;4.27;;
3841;SDS011;1936;47.074;15.336;2022-08-19T06:26:14;6.30;;;4.20;;
3841;SDS011;1936;47.074;15.336;2022-08-19T06:28:19;9.47;;;3.37;;
3841;SDS011;1936;47.074;15.336;2022-08-19T06:30:24;3.07;;;2.77;;
3841;SDS011;1936;47.074;15.336;2022-08-19T06:32:28;5.63;;;3.63;;
3841;SDS011;1936;47.074;15.336;2022-08-19T06:34:34;4.90;;;3.00;;
3841;SDS011;1936;47.074;15.336;2022-08-19T06:36:39;9.03;;;4.10;;
3841;SDS011;1936;47.074;15.336;2022-08-19T06:38:45;6.80;;;3.43;;
3841;SDS011;1936;47.074;15.336;2022-08-19T06:40:49;6.73;;;3.50;;
3841;SDS011;1936;47.074;15.336;2022-08-19T06:42:53;6.77;;;4.07;;
3841;SDS011;1936;47.074;15.336;2022-08-19T06:45:01;6.63;;;3.67;;
3841;SDS011;1936;47.074;15.336;2022-08-19T06:47:11;9.23;;;3.80;;
3841;SDS011;1936;47.074;15.336;2022-08-19T06:49:29;9.57;;;4.00;;
3841;SDS011;1936;47.074;15.336;2022-08-19T06:51:35;7.47;;;4.80;;
3841;SDS011;1936;47.074;15.336;2022-08-19T06:53:43;8.73;;;3.10;;
3841;SDS011;1936;47.074;15.336;2022-08-19T06:55:49;6.60;;;4.00;;
3841;SDS011;1936;47.074;15.336;2022-08-19T06:58:04;7.33;;;4.17;;
3841;SDS011;1936;47.074;15.336;2022-08-19T07:00:08;4.70;;;3.33;;
3841;SDS011;1936;47.074;15.336;2022-08-19T07:02:14;9.43;;;3.10;;
3841;SDS011;1936;47.074;15.336;2022-08-19T07:04:23;6.33;;;3.93;;
3841;SDS011;1936;47.074;15.336;2022-08-19T07:06:28;5.33;;;3.70;;
3841;SDS011;1936;47.074;15.336;2022-08-19T07:08:47;9.33;;;4.10;;
3841;SDS011;1936;47.074;15.336;2022-08-19T07:10:56;5.23;;;3.33;;
3841;SDS011;1936;47.074;15.336;2022-08-19T07:13:09;7.70;;;4.07;;
3841;SDS011;1936;47.074;15.336;2022-08-19T07:15:15;9.03;;;3.70;;
3841;SDS011;1936;47.074;15.336;2022-08-19T07:17:19;6.10;;;4.20;;
3841;SDS011;1936;47.074;15.336;2022-08-19T07:19:24;5.07;;;3.70;;
3841;SDS011;1936;47.074;15.336;2022-08-19T07:21:29;8.00;;;4.73;;
3841;SDS011;1936;47.074;15.336;2022-08-19T07:23:38;4.13;;;2.53;;
3841;SDS011;1936;47.074;15.336;2022-08-19T07:25:45;6.23;;;2.50;;
3841;SDS011;1936;47.074;15.336;2022-08-19T07:27:53;7.13;;;2.37;;
3841;SDS011;1936;47.074;15.336;2022-08-19T07:29:57;3.70;;;2.50;;
3841;SDS011;1936;47.074;15.336;2022-08-19T07:32:03;2.87;;;1.80;;
3841;SDS011;1936;47.074;15.336;2022-08-19T07:34:14;4.30;;;1.57;;
3841;SDS011;1936;47.074;15.336;2022-08-19T07:36:21;5.90;;;1.70;;
3841;SDS011;1936;47.074;15.336;2022-08-19T07:38:26;4.50;;;1.63;;
3841;SDS011;1936;47.074;15.336;2022-08-19T07:40:31;3.83;;;1.80;;
3841;SDS011;1936;47.074;15.336;2022-08-19T07:42:38;3.10;;;1.53;;
3841;SDS011;1936;47.074;15.336;2022-08-19T07:44:42;3.40;;;1.30;;
3841;SDS011;1936;47.074;15.336;2022-08-19T07:46:51;2.93;;;1.47;;
3841;SDS011;1936;47.074;15.336;2022-08-19T07:48:56;1.40;;;0.80;;
3841;SDS011;1936;47.074;15.336;2022-08-19T07:51:03;4.47;;;1.30;;
3841;SDS011;1936;47.074;15.336;2022-08-19T07:53:08;2.17;;;1.33;;
3841;SDS011;1936;47.074;15.336;2022-08-19T07:55:13;2.30;;;1.30;;
3841;SDS011;1936;47.074;15.336;2022-08-19T07:57:38;4.03;;;1.30;;
3841;SDS011;1936;47.074;15.336;2022-08-19T07:59:44;3.00;;;2.20;;
3841;SDS011;1936;47.074;15.336;2022-08-19T08:01:48;4.67;;;1.17;;
3841;SDS011;1936;47.074;15.336;2022-08-19T08:03:54;3.80;;;1.50;;
3841;SDS011;1936;47.074;15.336;2022-08-19T08:06:16;1.97;;;1.17;;
3841;SDS011;1936;47.074;15.336;2022-08-19T08:08:37;8.83;;;1.53;;
3841;SDS011;1936;47.074;15.336;2022-08-19T08:10:59;3.33;;;1.50;;
3841;SDS011;1936;47.074;15.336;2022-08-19T08:13:10;3.70;;;1.90;;
3841;SDS011;1936;47.074;15.336;2022-08-19T08:15:15;4.00;;;1.67;;
3841;SDS011;1936;47.074;15.336;2022-08-19T08:17:20;4.40;;;1.83;;
3841;SDS011;1936;47.074;15.336;2022-08-19T08:19:49;5.03;;;2.20;;
3841;SDS011;1936;47.074;15.336;2022-08-19T08:21:53;7.10;;;1.63;;
3841;SDS011;1936;47.074;15.336;2022-08-19T08:23:58;4.67;;;1.23;;
3841;SDS011;1936;47.074;15.336;2022-08-19T08:26:05;6.40;;;2.00;;
3841;SDS011;1936;47.074;15.336;2022-08-19T08:28:10;2.90;;;1.67;;
3841;SDS011;1936;47.074;15.336;2022-08-19T08:30:19;3.57;;;1.60;;
3841;SDS011;1936;47.074;15.336;2022-08-19T08:32:31;5.43;;;1.80;;
3841;SDS011;1936;47.074;15.336;2022-08-19T08:34:41;4.40;;;2.13;;
3841;SDS011;1936;47.074;15.336;2022-08-19T08:36:52;3.43;;;2.40;;
3841;SDS011;1936;47.074;15.336;2022-08-19T08:38:57;5.27;;;2.80;;
3841;SDS011;1936;47.074;15.336;2022-08-19T08:41:05;5.60;;;2.53;;
3841;SDS011;1936;47.074;15.336;2022-08-19T08:43:25;2.60;;;1.73;;
3841;SDS011;1936;47.074;15.336;2022-08-19T08:45:33;5.40;;;2.23;;
3841;SDS011;1936;47.074;15.336;2022-08-19T08:47:44;6.33;;;2.83;;
3841;SDS011;1936;47.074;15.336;2022-08-19T08:49:54;4.40;;;3.03;;
3841;SDS011;1936;47.074;15.336;2022-08-19T08:52:11;4.20;;;2.80;;
3841;SDS011;1936;47.074;15.336;2022-08-19T08:54:28;4.50;;;2.90;;
3841;SDS011;1936;47.074;15.336;2022-08-19T08:56:37;6.97;;;3.23;;
3841;SDS011;1936;47.074;15.336;2022-08-19T08:58:47;5.43;;;2.70;;
3841;SDS011;1936;47.074;15.336;2022-08-19T09:00:55;4.70;;;2.80;;
3841;SDS011;1936;47.074;15.336;2022-08-19T09:02:59;7.17;;;3.17;;
3841;SDS011;1936;47.074;15.336;2022-08-19T09:05:05;4.30;;;2.60;;
3841;SDS011;1936;47.074;15.336;2022-08-19T09:07:23;5.97;;;2.77;;
3841;SDS011;1936;47.074;15.336;2022-08-19T09:09:37;5.03;;;2.90;;
3841;SDS011;1936;47.074;15.336;2022-08-19T09:11:50;4.40;;;2.97;;
3841;SDS011;1936;47.074;15.336;2022-08-19T09:14:18;7.20;;;2.30;;
3841;SDS011;1936;47.074;15.336;2022-08-19T09:16:51;5.10;;;3.03;;
3841;SDS011;1936;47.074;15.336;2022-08-19T09:18:58;6.53;;;2.93;;
3841;SDS011;1936;47.074;15.336;2022-08-19T09:21:06;8.53;;;2.87;;
3841;SDS011;1936;47.074;15.336;2022-08-19T09:23:11;6.43;;;2.97;;
3841;SDS011;1936;47.074;15.336;2022-08-19T09:25:26;6.20;;;2.90;;
3841;SDS011;1936;47.074;15.336;2022-08-19T09:27:35;14.70;;;3.10;;
3841;SDS011;1936;47.074;15.336;2022-08-19T09:29:55;4.33;;;2.30;;
3841;SDS011;1936;47.074;15.336;2022-08-19T09:31:59;8.20;;;3.17;;
3841;SDS011;1936;47.074;15.336;2022-08-19T09:34:02;8.83;;;3.50;;
3841;SDS011;1936;47.074;15.336;2022-08-19T09:36:08;8.03;;;3.87;;
3841;SDS011;1936;47.074;15.336;2022-08-19T09:38:23;8.77;;;3.20;;
3841;SDS011;1936;47.074;15.336;2022-08-19T09:40:27;6.90;;;3.43;;
3841;SDS011;1936;47.074;15.336;2022-08-19T09:42:38;3.23;;;2.93;;
3841;SDS011;1936;47.074;15.336;2022-08-19T09:44:50;6.53;;;4.00;;
3841;SDS011;1936;47.074;15.336;2022-08-19T09:46:55;3.80;;;3.10;;
3841;SDS011;1936;47.074;15.336;2022-08-19T09:48:59;4.13;;;3.00;;
3841;SDS011;1936;47.074;15.336;2022-08-19T09:51:08;3.97;;;3.20;;
3841;SDS011;1936;47.074;15.336;2022-08-19T09:53:14;7.07;;;3.40;;
3841;SDS011;1936;47.074;15.336;2022-08-19T09:55:17;3.57;;;2.97;;
3841;SDS011;1936;47.074;15.336;2022-08-19T09:57:24;5.80;;;3.33;;
3841;SDS011;1936;47.074;15.336;2022-08-19T09:59:28;6.33;;;3.30;;
3841;SDS011;1936;47.074;15.336;2022-08-19T10:01:34;8.90;;;2.97;;
3841;SDS011;1936;47.074;15.336;2022-08-19T10:03:40;5.93;;;3.40;;
3841;SDS011;1936;47.074;15.336;2022-08-19T10:05:44;3.93;;;3.23;;
3841;SDS011;1936;47.074;15.336;2022-08-19T10:07:55;5.23;;;3.40;;
3841;SDS011;1936;47.074;15.336;2022-08-19T10:10:05;3.40;;;2.50;;
3841;SDS011;1936;47.074;15.336;2022-08-19T10:12:10;8.00;;;3.40;;
3841;SDS011;1936;47.074;15.336;2022-08-19T10:14:20;5.20;;;2.87;;
3841;SDS011;1936;47.074;15.336;2022-08-19T10:16:26;5.70;;;3.17;;
3841;SDS011;1936;47.074;15.336;2022-08-19T10:18:30;4.57;;;3.03;;
3841;SDS011;1936;47.074;15.336;2022-08-19T10:20:37;6.03;;;3.10;;
3841;SDS011;1936;47.074;15.336;2022-08-19T10:22:40;6.40;;;3.07;;
3841;SDS011;1936;47.074;15.336;2022-08-19T10:24:45;4.23;;;2.37;;
3841;SDS011;1936;47.074;15.336;2022-08-19T10:26:50;3.10;;;2.80;;
3841;SDS011;1936;47.074;15.336;2022-08-19T10:29:00;6.40;;;3.00;;
3841;SDS011;1936;47.074;15.336;2022-08-19T10:31:10;4.17;;;2.50;;
3841;SDS011;1936;47.074;15.336;2022-08-19T10:33:19;4.47;;;2.70;;
3841;SDS011;1936;47.074;15.336;2022-08-19T10:35:48;7.30;;;2.90;;
3841;SDS011;1936;47.074;15.336;2022-08-19T10:37:57;5.20;;;2.80;;
3841;SDS011;1936;47.074;15.336;2022-08-19T10:40:04;4.23;;;2.50;;
3841;SDS011;1936;47.074;15.336;2022-08-19T10:42:09;5.27;;;2.70;;
3841;SDS011;1936;47.074;15.336;2022-08-19T10:44:14;8.50;;;3.20;;
3841;SDS011;1936;47.074;15.336;2022-08-19T10:46:19;7.13;;;3.53;;
3841;SDS011;1936;47.074;15.336;2022-08-19T10:48:25;6.07;;;3.07;;
3841;SDS011;1936;47.074;15.336;2022-08-19T10:50:29;3.60;;;2.20;;
3841;SDS011;1936;47.074;15.336;2022-08-19T10:52:51;6.90;;;2.83;;
3841;SDS011;1936;47.074;15.336;2022-08-19T10:54:56;5.83;;;2.93;;
3841;SDS011;1936;47.074;15.336;2022-08-19T10:57:17;5.03;;;2.37;;
3841;SDS011;1936;47.074;15.336;2022-08-19T10:59:20;5.20;;;2.30;;
3841;SDS011;1936;47.074;15.336;2022-08-19T11:01:34;8.40;;;3.10;;
3841;SDS011;1936;47.074;15.336;2022-08-19T11:03:38;6.93;;;2.27;;
3841;SDS011;1936;47.074;15.336;2022-08-19T11:05:45;3.10;;;2.50;;
3841;SDS011;1936;47.074;15.336;2022-08-19T11:07:52;5.17;;;2.97;;
3841;SDS011;1936;47.074;15.336;2022-08-19T11:09:56;7.03;;;2.43;;
3841;SDS011;1936;47.074;15.336;2022-08-19T11:12:00;7.70;;;3.33;;
3841;SDS011;1936;47.074;15.336;2022-08-19T11:14:05;8.70;;;2.60;;
3841;SDS011;1936;47.074;15.336;2022-08-19T11:16:10;8.53;;;3.70;;
3841;SDS011;1936;47.074;15.336;2022-08-19T11:18:16;7.70;;;3.27;;
3841;SDS011;1936;47.074;15.336;2022-08-19T11:20:20;3.13;;;2.30;;
3841;SDS011;1936;47.074;15.336;2022-08-19T11:22:24;5.20;;;3.10;;
3841;SDS011;1936;47.074;15.336;2022-08-19T11:24:42;5.20;;;3.30;;
3841;SDS011;1936;47.074;15.336;2022-08-19T11:26:46;9.87;;;4.03;;
3841;SDS011;1936;47.074;15.336;2022-08-19T11:28:51;5.10;;;3.03;;
3841;SDS011;1936;47.074;15.336;2022-08-19T11:30:56;7.50;;;3.30;;
3841;SDS011;1936;47.074;15.336;2022-08-19T11:33:00;9.17;;;4.07;;
3841;SDS011;1936;47.074;15.336;2022-08-19T11:35:04;6.37;;;2.57;;
3841;SDS011;1936;47.074;15.336;2022-08-19T11:37:09;8.33;;;3.30;;
3841;SDS011;1936;47.074;15.336;2022-08-19T11:39:15;5.00;;;2.90;;
3841;SDS011;1936;47.074;15.336;2022-08-19T11:41:23;5.90;;;2.67;;
3841;SDS011;1936;47.074;15.336;2022-08-19T11:43:27;7.70;;;3.90;;
3841;SDS011;1936;47.074;15.336;2022-08-19T11:45:37;7.30;;;3.37;;
3841;SDS011;1936;47.074;15.336;2022-08-19T11:47:41;13.03;;;3.30;;
3841;SDS011;1936;47.074;15.336;2022-08-19T11:49:45;12.13;;;2.90;;
3841;SDS011;1936;47.074;15.336;2022-08-19T11:51:49;6.80;;;2.77;;
3841;SDS011;1936;47.074;15.336;2022-08-19T11:53:55;5.73;;;2.87;;
3841;SDS011;1936;47.074;15.336;2022-08-19T11:56:00;4.87;;;2.17;;
3841;SDS011;1936;47.074;15.336;2022-08-19T11:58:06;5.00;;;2.40;;
3841;SDS011;1936;47.074;15.336;2022-08-19T12:00:19;7.93;;;2.90;;
3841;SDS011;1936;47.074;15.336;2022-08-19T12:02:23;12.30;;;4.80;;
3841;SDS011;1936;47.074;15.336;2022-08-19T12:04:28;5.57;;;2.90;;
3841;SDS011;1936;47.074;15.336;2022-08-19T12:06:32;7.70;;;2.60;;
3841;SDS011;1936;47.074;15.336;2022-08-19T12:08:36;6.27;;;3.20;;
3841;SDS011;1936;47.074;15.336;2022-08-19T12:10:41;13.17;;;2.93;;
3841;SDS011;1936;47.074;15.336;2022-08-19T12:12:48;5.67;;;2.40;;
3841;SDS011;1936;47.074;15.336;2022-08-19T12:15:01;4.40;;;2.93;;
3841;SDS011;1936;47.074;15.336;2022-08-19T12:17:05;9.23;;;2.53;;
3841;SDS011;1936;47.074;15.336;2022-08-19T12:19:10;5.77;;;2.63;;
3841;SDS011;1936;47.074;15.336;2022-08-19T12:21:24;5.23;;;2.77;;
3841;SDS011;1936;47.074;15.336;2022-08-19T12:23:30;8.03;;;2.87;;
3841;SDS011;1936;47.074;15.336;2022-08-19T12:25:34;7.47;;;3.20;;
3841;SDS011;1936;47.074;15.336;2022-08-19T12:27:38;5.97;;;2.73;;
3841;SDS011;1936;47.074;15.336;2022-08-19T12:29:53;3.63;;;2.90;;
3841;SDS011;1936;47.074;15.336;2022-08-19T12:31:58;8.10;;;2.60;;
3841;SDS011;1936;47.074;15.336;2022-08-19T12:34:04;5.97;;;2.87;;
3841;SDS011;1936;47.074;15.336;2022-08-19T12:36:11;4.77;;;3.00;;
3841;SDS011;1936;47.074;15.336;2022-08-19T12:38:16;9.40;;;3.47;;
3841;SDS011;1936;47.074;15.336;2022-08-19T12:40:20;6.93;;;2.77;;
3841;SDS011;1936;47.074;15.336;2022-08-19T12:42:27;6.53;;;3.10;;
3841;SDS011;1936;47.074;15.336;2022-08-19T12:44:31;9.03;;;4.07;;
3841;SDS011;1936;47.074;15.336;2022-08-19T12:46:34;5.60;;;2.53;;
3841;SDS011;1936;47.074;15.336;2022-08-19T12:48:41;3.57;;;2.00;;
3841;SDS011;1936;47.074;15.336;2022-08-19T12:50:46;10.77;;;2.47;;
3841;SDS011;1936;47.074;15.336;2022-08-19T12:52:50;8.63;;;2.60;;
3841;SDS011;1936;47.074;15.336;2022-08-19T12:54:55;5.77;;;2.57;;
3841;SDS011;1936;47.074;15.336;2022-08-19T12:56:59;7.03;;;2.70;;